Time;durP1;ratioP1;P1;durP2;ratioP2;P2;SDS_P1;SDS_P2;PMS_P1;PMS_P2;Temp;Humidity;BMP_temperature;BMP_pressure;BME280_temperature;BME280_humidity;BME280_pressure;Samples;Min_cycle;Max_cycle;Signal;HPM_P1;HPM_P2
2023/01/31 00:01:31;;;;;;;14.10;11.60;;;;;;;4.38;62.47;100899.70;106980;1271;25388;-58
2023/01/31 00:04:02;;;;;;;17.20;11.70;;;;;;;4.37;62.47;100902.44;107064;1268;22941;-58
2023/01/31 00:06:31;;;;;;;17.00;12.30;;;;;;;4.36;62.59;100908.63;106352;1268;1002942;-58
2023/01/31 00:08:59;;;;;;;15.30;11.80;;;;;;;4.37;62.45;100911.38;107031;1275;22649;-58
2023/01/31 00:11:27;;;;;;;15.90;12.10;;;;;;;4.37;62.51;100913.43;107059;1268;22633;-59
2023/01/31 00:13:54;;;;;;;17.80;13.50;;;;;;;4.35;62.32;100907.92;106427;1268;1004128;-59
2023/01/31 00:16:22;;;;;;;19.00;12.60;;;;;;;4.32;62.33;100900.35;107151;1268;25415;-59
2023/01/31 00:18:51;;;;;;;17.60;12.70;;;;;;;4.29;62.60;100898.27;106269;1268;1003302;-59
2023/01/31 00:21:25;;;;;;;17.40;12.80;;;;;;;4.29;62.77;100901.02;106734;1274;24507;-59
2023/01/31 00:23:53;;;;;;;16.70;12.00;;;;;;;4.29;62.71;100901.54;106724;1269;25000;-58
2023/01/31 00:26:25;;;;;;;17.60;13.10;;;;;;;4.30;62.79;100902.59;106994;1268;25352;-58
2023/01/31 00:28:53;;;;;;;17.90;12.60;;;;;;;4.33;62.74;100897.95;107000;1268;22562;-59
2023/01/31 00:31:21;;;;;;;17.50;12.60;;;;;;;4.33;62.46;100902.08;106218;1269;1004181;-59
2023/01/31 00:33:50;;;;;;;16.40;11.80;;;;;;;4.33;62.77;100902.23;107185;1268;22602;-59
2023/01/31 00:36:19;;;;;;;16.10;12.30;;;;;;;4.32;62.86;100906.04;106271;1268;1003831;-58
2023/01/31 00:38:53;;;;;;;20.50;13.40;;;;;;;4.33;62.78;100909.30;107046;1274;25345;-59
2023/01/31 00:41:21;;;;;;;18.70;13.60;;;;;;;4.34;62.66;100908.44;107055;1268;26154;-59
2023/01/31 00:43:49;;;;;;;19.60;13.60;;;;;;;4.33;62.82;100904.30;106306;1268;1002968;-59
2023/01/31 00:46:19;;;;;;;18.70;13.10;;;;;;;4.33;62.63;100904.64;107023;1268;24271;-59
2023/01/31 00:48:46;;;;;;;17.60;14.20;;;;;;;4.34;63.02;100901.22;106782;1269;24214;-59
2023/01/31 00:51:14;;;;;;;19.80;13.20;;;;;;;4.36;62.85;100898.48;106859;1268;23280;-59
2023/01/31 00:53:41;;;;;;;18.30;13.00;;;;;;;4.38;62.75;100901.08;106117;1268;1003762;-59
2023/01/31 00:56:13;;;;;;;20.30;14.50;;;;;;;4.40;62.65;100899.02;106679;1256;25605;-58
2023/01/31 00:58:44;;;;;;;18.50;13.60;;;;;;;4.42;62.70;100896.64;106063;1271;1003585;-59
2023/01/31 01:01:14;;;;;;;20.60;14.50;;;;;;;4.41;62.60;100891.81;106694;1273;25420;-58
2023/01/31 01:03:42;;;;;;;20.00;14.10;;;;;;;4.39;62.36;100896.95;106447;1275;22545;-58
2023/01/31 01:06:09;;;;;;;17.40;13.20;;;;;;;4.36;62.58;100893.85;106754;1271;25503;-59
2023/01/31 01:08:37;;;;;;;17.30;13.30;;;;;;;4.35;62.61;100885.09;106726;1272;24260;-58
2023/01/31 01:11:37;;;;;;;20.20;14.80;;;;;;;4.35;62.45;100880.45;106710;1279;22550;-58
2023/01/31 01:14:04;;;;;;;18.50;13.90;;;;;;;4.35;62.21;100887.15;106224;1283;25367;-59
2023/01/31 01:16:34;;;;;;;19.20;14.30;;;;;;;4.33;62.40;100886.10;105451;1281;1003795;-58
2023/01/31 01:19:04;;;;;;;20.60;13.90;;;;;;;4.32;62.24;100892.27;106358;1265;24257;-58
2023/01/31 01:21:31;;;;;;;19.70;15.20;;;;;;;4.28;62.24;100890.20;106280;1278;23926;-58
2023/01/31 01:24:00;;;;;;;20.10;14.50;;;;;;;4.27;62.08;100889.85;106282;1278;24285;-58
2023/01/31 01:26:29;;;;;;;21.00;14.10;;;;;;;4.27;62.09;100886.07;105920;1281;25389;-59
2023/01/31 01:28:58;;;;;;;15.80;13.20;;;;;;;4.26;61.86;100882.64;106430;1275;25421;-59
2023/01/31 01:31:28;;;;;;;18.00;13.50;;;;;;;4.23;61.30;100879.52;106385;1277;22526;-58
2023/01/31 01:34:01;;;;;;;17.70;13.10;;;;;;;4.21;61.06;100881.40;105610;1279;1002906;-58
2023/01/31 01:36:28;;;;;;;17.70;13.50;;;;;;;4.19;61.04;100880.01;105782;1277;1003750;-59
2023/01/31 01:38:56;;;;;;;19.50;14.00;;;;;;;4.17;60.65;100885.15;106402;1282;25371;-58
2023/01/31 01:41:23;;;;;;;22.90;14.90;;;;;;;4.18;60.67;100878.13;106392;1276;25335;-58
2023/01/31 01:43:51;;;;;;;19.50;14.60;;;;;;;4.19;60.72;100878.13;105635;1277;1003004;-58
2023/01/31 01:46:20;;;;;;;25.30;16.40;;;;;;;4.21;60.52;100874.88;106386;1278;25491;-59
2023/01/31 01:48:50;;;;;;;20.00;14.70;;;;;;;4.23;60.57;100876.25;106254;1278;22561;-59
2023/01/31 01:51:18;;;;;;;20.10;13.70;;;;;;;4.21;60.72;100876.93;106148;1275;1002495;-60
2023/01/31 01:53:46;;;;;;;20.20;14.40;;;;;;;4.20;60.74;100874.01;106668;1271;25459;-59
2023/01/31 01:56:18;;;;;;;20.10;15.20;;;;;;;4.19;60.73;100877.77;107106;1268;22541;-59
2023/01/31 01:58:46;;;;;;;21.20;14.90;;;;;;;4.19;61.22;100875.89;106785;1269;25373;-59
2023/01/31 02:01:15;;;;;;;18.40;14.00;;;;;;;4.21;61.22;100878.48;106348;1268;1003035;-59
2023/01/31 06:07:16;;;;;;;30.10;21.20;;;;;;;2.10;69.81;100907.13;104631;1298;24109;-58
2023/01/31 06:09:43;;;;;;;28.10;20.00;;;;;;;2.25;69.23;100907.52;105930;1284;25383;-59
2023/01/31 06:12:13;;;;;;;30.40;19.50;;;;;;;2.38;68.91;100909.75;106167;1280;22527;-59
2023/01/31 06:14:41;;;;;;;27.10;19.60;;;;;;;2.53;67.92;100915.61;105962;1276;476776;-58
2023/01/31 06:17:08;;;;;;;25.10;18.50;;;;;;;2.67;67.35;100919.72;106306;1283;22544;-58
2023/01/31 06:19:36;;;;;;;27.00;18.40;;;;;;;2.79;66.98;100918.52;106464;1276;25394;-59
2023/01/31 06:22:06;;;;;;;30.30;21.50;;;;;;;2.90;66.45;100920.03;106337;1280;22560;-58
2023/01/31 06:24:33;;;;;;;28.80;20.30;;;;;;;2.99;66.27;100919.27;106394;1276;25399;-60
2023/01/31 06:27:00;;;;;;;27.70;19.20;;;;;;;3.06;65.64;100923.63;106236;1280;25418;-58
2023/01/31 06:29:27;;;;;;;26.90;19.80;;;;;;;3.11;65.07;100923.34;106304;1276;25417;-59
2023/01/31 06:31:54;;;;;;;27.60;19.20;;;;;;;3.17;64.68;100919.48;106263;1280;25348;-58
2023/01/31 06:34:21;;;;;;;27.10;19.80;;;;;;;3.26;64.69;100922.98;106106;1270;25393;-58
2023/01/31 06:36:48;;;;;;;29.70;20.90;;;;;;;3.32;64.49;100921.17;106400;1276;25354;-58
2023/01/31 06:39:16;;;;;;;29.70;20.90;;;;;;;3.39;64.10;100925.00;106431;1276;25538;-58
2023/01/31 06:41:43;;;;;;;30.00;20.70;;;;;;;3.44;63.97;100924.54;106421;1276;25383;-59
2023/01/31 06:44:12;;;;;;;31.70;21.90;;;;;;;3.50;63.70;100926.48;106393;1275;25364;-60
2023/01/31 06:46:39;;;;;;;29.10;21.10;;;;;;;3.56;63.31;100929.29;106278;1282;25538;-60
2023/01/31 06:49:06;;;;;;;31.00;22.20;;;;;;;3.62;63.09;100931.23;106406;1278;22554;-60
2023/01/31 06:51:33;;;;;;;28.80;20.70;;;;;;;3.66;62.69;100934.19;105689;1276;1003743;-58
2023/01/31 06:54:00;;;;;;;29.50;19.60;;;;;;;3.68;62.36;100933.00;106430;1277;25565;-58
2023/01/31 06:56:27;;;;;;;35.00;22.90;;;;;;;3.68;62.07;100932.84;106413;1273;25403;-58
2023/01/31 06:58:54;;;;;;;32.40;21.10;;;;;;;3.68;61.98;100932.49;106689;1279;25536;-58
2023/01/31 07:01:23;;;;;;;31.60;22.00;;;;;;;3.66;61.67;100938.30;105586;1277;1003025;-59
2023/01/31 07:03:50;;;;;;;30.50;21.10;;;;;;;3.65;61.74;100937.25;106724;1273;25397;-58
2023/01/31 07:06:19;;;;;;;31.00;21.70;;;;;;;3.68;61.46;100938.84;106304;1280;22548;-60
2023/01/31 07:08:47;;;;;;;31.00;21.60;;;;;;;3.72;61.65;100944.88;106697;1273;25360;-58
2023/01/31 07:11:14;;;;;;;31.20;21.10;;;;;;;3.74;61.24;100947.30;106814;1271;22552;-59
2023/01/31 07:13:44;;;;;;;31.90;21.70;;;;;;;3.75;60.90;100943.19;105588;1273;1003268;-58
2023/01/31 07:16:13;;;;;;;33.80;22.30;;;;;;;3.76;60.98;100940.11;106796;1271;25382;-59
2023/01/31 07:18:40;;;;;;;33.80;23.50;;;;;;;3.78;60.95;100943.38;105994;1275;1003418;-60
2023/01/31 07:21:07;;;;;;;34.90;23.20;;;;;;;3.80;61.17;100951.30;106809;1273;22553;-59
2023/01/31 07:23:34;;;;;;;31.70;21.30;;;;;;;3.85;61.21;100956.33;106047;1260;1003086;-58
2023/01/31 07:26:03;;;;;;;32.80;21.80;;;;;;;3.90;61.12;100956.36;106723;1272;25395;-58
2023/01/31 07:28:31;;;;;;;35.00;21.30;;;;;;;3.95;61.09;100954.00;106733;1272;23042;-58
2023/01/31 07:31:06;;;;;;;33.60;22.10;;;;;;;4.00;60.90;100957.48;106801;1273;25415;-58
2023/01/31 07:33:33;;;;;;;31.50;22.30;;;;;;;4.02;60.60;100956.11;106450;1275;22634;-58
2023/01/31 07:36:03;;;;;;;34.20;22.90;;;;;;;4.03;60.34;100957.83;106111;1271;1003689;-58
2023/01/31 07:38:31;;;;;;;33.40;21.80;;;;;;;4.03;60.37;100958.35;106353;1273;22539;-58
2023/01/31 07:40:59;;;;;;;33.50;23.00;;;;;;;4.03;60.34;100960.58;106775;1271;23912;-58
2023/01/31 07:43:26;;;;;;;34.20;23.60;;;;;;;4.01;60.51;100960.56;106787;1272;25435;-59
2023/01/31 07:45:54;;;;;;;31.10;22.50;;;;;;;4.00;60.38;100963.64;106612;1274;25366;-60
2023/01/31 07:48:24;;;;;;;32.00;21.80;;;;;;;4.00;60.35;100965.19;105568;1277;1002994;-58
2023/01/31 07:50:52;;;;;;;30.60;21.10;;;;;;;4.03;60.61;100968.30;106561;1272;25504;-58
2023/01/31 07:53:19;;;;;;;38.80;23.20;;;;;;;4.05;60.46;100972.61;106441;1272;24245;-58
2023/01/31 07:55:46;;;;;;;33.70;23.00;;;;;;;4.06;60.42;100975.54;106181;1277;25501;-58
2023/01/31 07:58:15;;;;;;;36.10;23.70;;;;;;;4.05;60.44;100975.19;106450;1271;24401;-58
2023/01/31 08:03:32;;;;;;;32.50;22.00;;;;;;;4.06;60.52;100974.16;106746;1270;25334;-58
2023/01/31 08:06:07;;;;;;;35.00;23.60;;;;;;;4.03;60.37;100976.20;106768;1276;25407;-58
2023/01/31 08:08:35;;;;;;;35.30;23.00;;;;;;;4.03;60.63;100976.71;106688;1274;25430;-58
2023/01/31 08:11:03;;;;;;;33.50;23.50;;;;;;;4.07;60.68;100976.23;105867;1275;1003637;-58
2023/01/31 08:13:34;;;;;;;90.00;67.30;;;;;;;4.11;60.68;100976.96;106769;1270;22536;-58
2023/01/31 08:16:03;;;;;;;36.20;26.00;;;;;;;4.11;61.11;100975.08;106755;1270;25404;-58
2023/01/31 08:18:30;;;;;;;36.10;25.00;;;;;;;4.14;60.93;100975.61;106819;1270;24066;-58
2023/01/31 08:20:58;;;;;;;33.30;23.10;;;;;;;4.18;60.69;100975.98;106793;1270;25421;-58
2023/01/31 08:23:26;;;;;;;35.40;24.30;;;;;;;4.24;60.60;100979.63;106704;1270;25425;-58
2023/01/31 08:26:04;;;;;;;33.70;23.00;;;;;;;4.32;60.54;100984.33;106062;1270;1002954;-58
2023/01/31 08:28:32;;;;;;;33.70;23.10;;;;;;;4.40;60.26;100984.56;106686;1276;24508;-59
2023/01/31 08:30:59;;;;;;;36.50;25.20;;;;;;;4.46;60.23;100987.17;106069;1272;1002826;-59
2023/01/31 08:33:37;;;;;;;33.90;23.60;;;;;;;4.52;60.03;100986.20;106788;1270;25432;-58
2023/01/31 08:36:15;;;;;;;34.70;23.50;;;;;;;4.57;60.15;100986.91;106786;1270;25422;-59
2023/01/31 08:38:43;;;;;;;30.10;21.90;;;;;;;4.64;60.24;100990.03;106782;1271;25353;-58
2023/01/31 08:41:11;;;;;;;32.00;22.80;;;;;;;4.73;60.11;100989.74;106691;1270;25396;-59
2023/01/31 08:43:38;;;;;;;28.20;21.10;;;;;;;4.80;59.75;100990.82;106592;1256;22564;-59
2023/01/31 08:46:28;;;;;;;31.40;21.80;;;;;;;4.87;59.50;100995.16;106027;1270;1003457;-59
2023/01/31 08:48:55;;;;;;;32.00;22.40;;;;;;;4.90;59.27;100994.48;106644;1270;22540;-59
2023/01/31 08:51:23;;;;;;;31.40;22.30;;;;;;;4.90;58.93;101000.66;106710;1271;23356;-58
2023/01/31 08:53:50;;;;;;;28.50;20.80;;;;;;;4.88;58.76;100995.33;106793;1270;25435;-58
2023/01/31 08:56:20;;;;;;;33.50;24.70;;;;;;;4.87;58.98;100995.50;106580;1277;25430;-58
2023/01/31 08:58:47;;;;;;;27.30;19.40;;;;;;;4.88;59.12;100996.20;106608;1273;25489;-58
2023/01/31 09:01:15;;;;;;;28.50;21.10;;;;;;;4.91;58.89;100995.85;106731;1277;25336;-58
2023/01/31 09:03:42;;;;;;;29.80;22.40;;;;;;;4.94;58.75;100996.73;106378;1276;25429;-58
2023/01/31 09:06:16;;;;;;;30.30;22.50;;;;;;;4.98;58.73;100999.84;106697;1259;25373;-58
2023/01/31 09:08:43;;;;;;;32.70;22.50;;;;;;;4.99;58.78;101000.89;107042;1270;22640;-58
2023/01/31 09:11:15;;;;;;;32.90;23.80;;;;;;;4.99;58.58;100997.45;106699;1272;25472;-58
2023/01/31 09:17:27;;;;;;;31.50;22.20;;;;;;;5.04;58.54;100995.75;106709;1270;25425;-59
2023/01/31 09:19:55;;;;;;;31.40;22.70;;;;;;;5.06;58.35;100994.39;106864;1275;24249;-58
2023/01/31 09:22:23;;;;;;;31.90;22.40;;;;;;;5.09;58.31;100991.30;106787;1275;25399;-59
2023/01/31 09:24:50;;;;;;;34.10;24.10;;;;;;;5.14;58.38;100989.95;106783;1270;25396;-59
2023/01/31 09:27:17;;;;;;;32.80;23.30;;;;;;;5.18;58.22;100989.79;105932;1273;1003482;-59
2023/01/31 09:29:44;;;;;;;32.80;23.60;;;;;;;5.20;58.14;100990.65;106757;1256;22574;-59
2023/01/31 09:32:11;;;;;;;33.90;23.80;;;;;;;5.22;58.26;100990.48;106785;1270;25337;-59
2023/01/31 09:34:38;;;;;;;35.50;23.90;;;;;;;5.25;58.22;100986.55;105656;1270;1002511;-60
2023/01/31 09:37:05;;;;;;;35.20;24.30;;;;;;;5.30;58.58;100985.19;106735;1270;25382;-58
2023/01/31 09:39:33;;;;;;;33.90;23.40;;;;;;;5.35;58.61;100984.00;106677;1270;25400;-58
2023/01/31 09:42:13;;;;;;;33.20;23.60;;;;;;;5.43;58.56;100978.70;106036;1270;1002980;-58
2023/01/31 09:44:41;;;;;;;36.50;25.30;;;;;;;5.52;58.15;100979.58;105999;1270;1002866;-59
2023/01/31 09:47:21;;;;;;;33.50;24.20;;;;;;;5.58;57.90;100976.66;106732;1270;25348;-59
2023/01/31 09:49:51;;;;;;;35.20;24.20;;;;;;;5.61;57.73;100977.52;106767;1270;25281;-60
2023/01/31 09:52:19;;;;;;;35.40;24.60;;;;;;;5.63;57.54;100977.54;106753;1274;25387;-58
2023/01/31 09:54:46;;;;;;;33.20;23.40;;;;;;;5.60;57.20;100978.91;106763;1270;22876;-59
2023/01/31 09:57:16;;;;;;;35.70;24.40;;;;;;;5.57;57.24;100978.03;106541;1274;25413;-60
2023/01/31 10:00:02;;;;;;;35.10;25.20;;;;;;;5.56;57.54;100981.83;106693;1271;22524;-60
2023/01/31 10:02:37;;;;;;;32.70;24.20;;;;;;;5.57;57.42;100981.13;106720;1273;25514;-60
2023/01/31 16:06:31;;;;;;;34.60;26.80;;;;;;;2.37;86.89;101107.50;104489;1296;558635;-60
2023/01/31 16:08:59;;;;;;;38.40;26.10;;;;;;;3.49;79.83;101105.53;105969;1282;24010;-61
2023/01/31 16:11:29;;;;;;;30.80;24.10;;;;;;;3.69;78.48;101108.02;105988;1281;22581;-62
2023/01/31 16:14:01;;;;;;;26.70;21.30;;;;;;;3.84;78.11;101112.12;105884;1286;25409;-60
2023/01/31 16:16:29;;;;;;;26.50;20.80;;;;;;;4.00;77.80;101111.27;106006;1281;22561;-59
2023/01/31 16:18:57;;;;;;;25.00;19.80;;;;;;;4.12;77.65;101113.13;105765;1286;201515;-60
2023/01/31 16:21:30;;;;;;;24.10;18.40;;;;;;;4.25;77.33;101114.10;106350;1279;25373;-60
2023/01/31 16:23:58;;;;;;;24.50;19.60;;;;;;;4.40;76.60;101115.44;105493;1280;1003546;-62
2023/01/31 16:26:29;;;;;;;23.50;18.10;;;;;;;4.52;75.85;101116.76;106271;1286;25505;-60
2023/01/31 16:28:58;;;;;;;22.90;18.40;;;;;;;4.64;75.35;101119.08;106286;1279;22550;-60
2023/01/31 16:31:28;;;;;;;23.20;17.30;;;;;;;4.76;74.59;101117.97;105858;1279;22536;-62
2023/01/31 16:33:58;;;;;;;23.10;17.40;;;;;;;4.77;74.35;101116.61;105982;1280;25530;-60
2023/01/31 16:36:49;;;;;;;22.40;18.30;;;;;;;4.81;73.91;101120.42;105910;1279;25493;-60
2023/01/31 16:39:29;;;;;;;27.90;19.50;;;;;;;4.87;73.31;101115.48;105349;1291;25619;-60
2023/01/31 16:41:57;;;;;;;23.10;18.00;;;;;;;4.93;72.87;101116.22;105603;1286;25430;-60
2023/01/31 16:44:27;;;;;;;22.80;17.60;;;;;;;5.00;72.52;101119.17;105715;1288;25442;-60
2023/01/31 16:46:54;;;;;;;24.50;18.30;;;;;;;5.06;72.12;101115.95;105672;1287;24074;-60
2023/01/31 16:49:28;;;;;;;27.90;19.20;;;;;;;5.19;71.45;101118.61;105529;1289;25368;-61
2023/01/31 16:52:16;;;;;;;22.50;18.30;;;;;;;5.25;70.75;101122.59;105752;1287;25426;-60
2023/01/31 16:55:11;;;;;;;20.80;17.00;;;;;;;5.29;70.32;101122.45;105658;1287;25567;-60
2023/01/31 16:57:38;;;;;;;22.70;17.00;;;;;;;5.33;70.05;101125.21;105628;1286;22684;-62
2023/01/31 17:00:23;;;;;;;21.40;17.10;;;;;;;5.36;69.53;101124.03;106434;1277;25355;-61
2023/01/31 17:02:51;;;;;;;22.30;17.30;;;;;;;5.39;69.31;101126.47;106341;1276;22694;-60
2023/01/31 17:05:23;;;;;;;22.90;17.90;;;;;;;5.39;68.85;101130.41;106168;1282;25384;-61
2023/01/31 17:07:52;;;;;;;22.80;17.70;;;;;;;5.38;68.49;101133.69;105694;1276;1015644;-60
2023/01/31 17:10:21;;;;;;;24.70;18.00;;;;;;;5.38;68.52;101133.52;106397;1276;25468;-62
2023/01/31 17:12:50;;;;;;;23.00;18.00;;;;;;;5.39;68.48;101133.34;105815;1275;1003694;-61
2023/01/31 17:15:18;;;;;;;21.60;18.30;;;;;;;5.41;68.27;101131.98;105828;1275;1003307;-62
2023/01/31 17:17:50;;;;;;;23.90;18.60;;;;;;;5.43;67.97;101134.90;106985;1266;25345;-61
2023/01/31 17:20:18;;;;;;;26.00;19.50;;;;;;;5.43;67.76;101141.97;106397;1267;1002948;-62
2023/01/31 17:22:45;;;;;;;25.20;18.70;;;;;;;5.45;67.81;101141.97;107080;1268;22526;-61
2023/01/31 17:25:33;;;;;;;22.00;17.50;;;;;;;5.49;67.79;101150.08;107202;1267;25581;-61
2023/01/31 17:28:00;;;;;;;;;;;;;;;5.52;67.57;101150.27;106906;1270;25420;-61
2023/01/31 17:30:29;;;;;;;25.50;18.70;;;;;;;5.54;67.25;101147.52;107124;1267;25350;-62
2023/01/31 17:32:57;;;;;;;26.30;19.20;;;;;;;5.54;67.13;101150.45;106846;1274;23085;-62
2023/01/31 17:35:38;;;;;;;25.40;18.90;;;;;;;5.55;66.82;101149.06;107082;1267;24225;-61
2023/01/31 17:38:05;;;;;;;23.90;19.30;;;;;;;5.55;66.96;101147.02;106803;1271;25488;-61
2023/01/31 17:40:32;;;;;;;25.20;19.60;;;;;;;5.56;66.78;101146.15;107099;1267;25275;-61
2023/01/31 17:43:01;;;;;;;24.60;18.90;;;;;;;5.57;66.68;101145.65;106163;1268;1002516;-61
2023/01/31 17:45:28;;;;;;;24.10;18.50;;;;;;;5.59;66.59;101144.96;107111;1251;22639;-62
2023/01/31 17:47:55;;;;;;;27.20;20.40;;;;;;;5.59;66.45;101147.03;106832;1267;25494;-62
2023/01/31 17:50:27;;;;;;;26.80;18.80;;;;;;;5.58;66.23;101148.41;107065;1267;25360;-61
2023/01/31 17:52:54;;;;;;;25.50;19.30;;;;;;;5.57;66.25;101148.56;106914;1267;22526;-60
2023/01/31 17:55:23;;;;;;;21.80;17.60;;;;;;;5.58;66.19;101150.13;106716;1269;25476;-61
2023/01/31 17:57:51;;;;;;;23.10;18.00;;;;;;;5.59;66.04;101147.36;106616;1269;26517;-62
2023/01/31 18:00:19;;;;;;;25.70;18.40;;;;;;;5.58;65.92;101147.21;107134;1266;25373;-61
2023/01/31 18:02:46;;;;;;;25.20;19.80;;;;;;;5.59;65.72;101152.38;107006;1274;25398;-61
2023/01/31 18:05:19;;;;;;;25.80;18.80;;;;;;;5.59;65.66;101150.48;107094;1268;25373;-62
2023/01/31 18:07:57;;;;;;;23.80;17.60;;;;;;;5.57;65.57;101147.54;107167;1268;26509;-60
2023/01/31 18:10:25;;;;;;;23.70;18.50;;;;;;;5.57;65.57;101148.40;107116;1266;25387;-61
2023/01/31 18:12:52;;;;;;;26.60;19.20;;;;;;;5.58;65.59;101146.34;107022;1266;25359;-62
2023/01/31 18:15:19;;;;;;;26.90;19.00;;;;;;;5.59;65.38;101147.38;107100;1266;25332;-62
2023/01/31 18:17:48;;;;;;;27.10;20.00;;;;;;;5.59;65.22;101147.55;106828;1274;25548;-60
2023/01/31 18:20:18;;;;;;;28.80;22.10;;;;;;;5.57;65.15;101148.05;106711;1271;25394;-61
2023/01/31 18:22:45;;;;;;;25.20;18.80;;;;;;;5.56;65.03;101148.22;106844;1269;25604;-60
2023/01/31 18:25:12;;;;;;;22.20;17.80;;;;;;;5.56;65.20;101150.63;106833;1267;25453;-61
2023/01/31 18:27:40;;;;;;;24.00;18.50;;;;;;;5.56;65.09;101152.70;106864;1274;25370;-60
2023/01/31 18:30:08;;;;;;;23.20;17.80;;;;;;;5.57;65.02;101155.98;107111;1267;25341;-60
2023/01/31 18:32:35;;;;;;;23.20;18.70;;;;;;;5.57;64.92;101161.13;107099;1269;25285;-61
2023/01/31 18:35:05;;;;;;;21.80;18.30;;;;;;;5.56;64.99;101162.34;107119;1267;25363;-61
2023/01/31 18:37:32;;;;;;;24.60;18.80;;;;;;;5.55;64.97;101163.20;107011;1268;25502;-60
2023/01/31 18:39:59;;;;;;;22.40;18.30;;;;;;;5.56;65.15;101159.06;107118;1266;23906;-60
2023/01/31 18:42:28;;;;;;;24.20;18.50;;;;;;;5.57;65.15;101158.91;107187;1267;25363;-60
2023/01/31 18:44:55;;;;;;;26.80;19.70;;;;;;;5.59;65.06;101164.75;106851;1267;22540;-60
2023/01/31 18:47:22;;;;;;;25.70;18.90;;;;;;;5.59;64.91;101157.54;106670;1269;25412;-60
2023/01/31 18:49:50;;;;;;;24.00;18.60;;;;;;;5.59;64.85;101153.23;107029;1267;23927;-60
2023/01/31 18:52:17;;;;;;;25.80;19.20;;;;;;;5.60;64.86;101155.98;106938;1252;25421;-60
2023/01/31 18:54:47;;;;;;;23.80;17.90;;;;;;;5.61;64.97;101155.14;106860;1274;25863;-61
2023/01/31 18:57:14;;;;;;;23.80;18.50;;;;;;;5.63;64.96;101153.08;107099;1267;24395;-60
2023/01/31 18:59:41;;;;;;;22.80;18.30;;;;;;;5.66;64.89;101154.63;107057;1267;25342;-60
2023/01/31 19:02:10;;;;;;;26.50;21.00;;;;;;;5.67;64.75;101159.11;107004;1269;25341;-60
2023/01/31 19:04:38;;;;;;;27.30;20.00;;;;;;;5.67;64.70;101157.21;107047;1267;22531;-61
2023/01/31 19:07:05;;;;;;;28.40;20.70;;;;;;;5.67;64.73;101156.70;107126;1268;25469;-60
2023/01/31 19:09:32;;;;;;;26.60;20.20;;;;;;;5.69;64.84;101155.33;107201;1267;25281;-60
2023/01/31 19:12:04;;;;;;;26.60;20.40;;;;;;;5.70;64.78;101160.86;107019;1267;25395;-60
2023/01/31 19:14:32;;;;;;;28.20;19.80;;;;;;;5.73;64.63;101164.82;107038;1267;22527;-60
2023/01/31 19:16:59;;;;;;;27.10;21.00;;;;;;;5.73;64.55;101163.44;106272;1267;1003096;-60
2023/01/31 19:19:26;;;;;;;26.40;20.60;;;;;;;5.73;64.59;101166.20;106642;1272;25425;-62
2023/01/31 19:21:53;;;;;;;25.50;20.10;;;;;;;5.73;64.57;101169.46;106736;1275;25578;-59
2023/01/31 19:24:20;;;;;;;27.30;20.40;;;;;;;5.74;64.48;101173.25;106680;1271;25404;-61
2023/01/31 19:27:04;;;;;;;30.10;21.40;;;;;;;5.74;64.38;101174.46;106431;1271;25358;-61
2023/01/31 19:29:32;;;;;;;27.00;20.50;;;;;;;5.75;64.39;101175.33;106418;1271;25376;-61
2023/01/31 19:31:59;;;;;;;34.10;24.20;;;;;;;5.73;64.29;101176.87;106619;1271;25509;-60
2023/01/31 19:34:26;;;;;;;41.70;26.70;;;;;;;5.73;64.26;101177.38;106721;1271;23896;-61
2023/01/31 19:36:53;;;;;;;32.40;22.80;;;;;;;5.72;64.26;101178.94;106766;1273;25391;-60
2023/01/31 19:39:20;;;;;;;31.70;22.10;;;;;;;5.73;64.36;101179.28;106723;1271;25367;-60
2023/01/31 19:41:48;;;;;;;31.60;21.10;;;;;;;5.75;64.32;101180.84;106627;1271;25417;-60
2023/01/31 19:44:15;;;;;;;29.90;19.60;;;;;;;5.76;64.10;101177.23;106718;1272;23340;-61
2023/01/31 19:46:42;;;;;;;27.10;19.90;;;;;;;5.75;64.07;101181.02;106575;1276;22839;-61
2023/01/31 19:49:09;;;;;;;25.20;18.60;;;;;;;5.76;64.05;101180.33;106778;1271;25352;-60
2023/01/31 19:51:37;;;;;;;26.20;18.30;;;;;;;5.75;64.06;101183.59;106252;1256;1002832;-60
2023/01/31 19:54:05;;;;;;;24.30;17.50;;;;;;;5.74;64.31;101184.80;107053;1269;25478;-60
2023/01/31 19:56:32;;;;;;;25.20;17.80;;;;;;;5.74;64.31;101185.66;107100;1270;25362;-60
2023/01/31 19:58:59;;;;;;;24.80;18.70;;;;;;;5.76;64.38;101184.46;106101;1269;1003529;-60
2023/01/31 20:01:27;;;;;;;24.20;17.80;;;;;;;5.78;64.19;101181.37;107165;1267;25340;-60
2023/01/31 20:03:54;;;;;;;27.90;20.30;;;;;;;5.80;64.24;101183.62;107208;1267;25366;-60
2023/01/31 20:06:26;;;;;;;26.10;20.20;;;;;;;5.81;64.28;101183.97;107135;1267;25471;-60
2023/01/31 20:08:58;;;;;;;25.80;18.90;;;;;;;5.80;64.23;101184.14;106916;1274;25338;-60
2023/01/31 20:11:26;;;;;;;22.20;18.10;;;;;;;5.81;64.18;101181.40;107096;1267;25341;-60
2023/01/31 20:13:56;;;;;;;22.00;16.80;;;;;;;5.84;64.17;101178.84;107159;1267;22523;-60
2023/01/31 20:16:23;;;;;;;22.10;16.70;;;;;;;5.85;64.08;101179.72;107096;1261;25393;-60
2023/01/31 20:18:51;;;;;;;21.20;17.10;;;;;;;5.85;64.04;101176.79;106811;1270;25530;-60
2023/01/31 20:21:20;;;;;;;28.30;18.60;;;;;;;5.85;63.91;101180.92;107201;1268;25342;-60
2023/01/31 20:23:50;;;;;;;22.10;16.40;;;;;;;5.85;64.03;101183.52;107137;1267;22765;-60
2023/01/31 20:26:18;;;;;;;23.00;16.80;;;;;;;5.86;64.08;101177.66;107139;1269;25415;-60
2023/01/31 20:28:45;;;;;;;22.60;16.60;;;;;;;5.88;64.00;101179.91;107275;1269;22673;-60
2023/01/31 20:31:13;;;;;;;22.30;17.50;;;;;;;5.90;63.86;101178.02;107147;1269;25443;-60
2023/01/31 20:33:40;;;;;;;24.20;17.40;;;;;;;5.89;63.65;101179.05;107076;1267;24279;-60
2023/01/31 20:36:07;;;;;;;24.10;17.00;;;;;;;5.87;63.64;101179.73;106646;1267;25410;-61
2023/01/31 20:38:36;;;;;;;25.20;17.50;;;;;;;5.87;63.81;101181.45;106902;1269;22541;-60
2023/01/31 20:41:06;;;;;;;28.30;18.30;;;;;;;5.87;63.86;101182.65;105801;1271;1003299;-60
2023/01/31 20:43:33;;;;;;;26.40;19.00;;;;;;;5.88;63.78;101185.76;106628;1269;22547;-60
2023/01/31 20:46:07;;;;;;;27.70;19.00;;;;;;;5.89;63.66;101191.95;106738;1269;25485;-60
2023/01/31 20:48:35;;;;;;;26.80;17.70;;;;;;;5.88;63.59;101192.48;106718;1269;22523;-60
2023/01/31 20:51:02;;;;;;;25.90;19.40;;;;;;;5.87;63.59;101191.42;106763;1267;25367;-60
2023/01/31 20:53:29;;;;;;;25.50;19.70;;;;;;;5.83;63.54;101193.48;107014;1269;25345;-60
2023/01/31 20:55:57;;;;;;;24.00;18.90;;;;;;;5.81;63.70;101191.04;107102;1267;25345;-60
2023/01/31 20:58:26;;;;;;;24.20;20.40;;;;;;;5.82;63.87;101190.52;107176;1267;25412;-60
2023/01/31 21:00:54;;;;;;;20.70;16.70;;;;;;;5.82;63.82;101192.08;106388;1267;1003186;-61
2023/01/31 21:03:21;;;;;;;21.80;16.20;;;;;;;5.80;63.62;101191.89;107014;1274;25418;-60
2023/01/31 21:05:49;;;;;;;32.40;23.70;;;;;;;5.79;63.70;101191.88;107195;1272;25360;-60
2023/01/31 21:08:17;;;;;;;21.20;17.50;;;;;;;5.79;63.84;101189.11;106926;1267;22630;-60
2023/01/31 21:10:51;;;;;;;24.00;17.20;;;;;;;5.79;63.90;101190.83;106729;1272;25526;-60
2023/01/31 21:13:19;;;;;;;27.60;21.20;;;;;;;5.80;63.95;101192.58;106762;1270;25360;-60
2023/01/31 21:15:49;;;;;;;25.50;18.90;;;;;;;5.80;63.82;101189.48;106046;1272;1002518;-60
2023/01/31 21:18:17;;;;;;;25.50;20.10;;;;;;;5.78;63.74;101191.18;106704;1272;24404;-60
2023/01/31 21:20:44;;;;;;;25.70;18.50;;;;;;;5.76;63.78;101191.53;106654;1272;24394;-60
2023/01/31 21:23:11;;;;;;;19.10;15.30;;;;;;;5.75;63.80;101189.27;106848;1275;25594;-60
2023/01/31 21:25:38;;;;;;;23.70;17.20;;;;;;;5.75;63.96;101194.78;106723;1270;25366;-60
2023/01/31 21:28:05;;;;;;;20.60;16.20;;;;;;;5.76;64.07;101193.05;106745;1270;25440;-60